sensor_id;sensor_type;location;lat;lon;timestamp;pressure;altitude;pressure_sealevel;temperature;humidity
8451;BME280;4262;50.980;13.892;2023-04-06T03:31:55;50308.28;;;-142.97;28.16
8451;BME280;4262;50.980;13.892;2023-04-06T03:34:35;50265.41;;;-142.97;28.02
8451;BME280;4262;50.980;13.892;2023-04-06T03:37:02;50255.66;;;-142.97;28.01
8451;BME280;4262;50.980;13.892;2023-04-06T03:39:29;50255.66;;;-142.97;28.21
8451;BME280;4262;50.980;13.892;2023-04-06T03:41:57;50253.69;;;-142.97;28.26
8451;BME280;4262;50.980;13.892;2023-04-06T03:44:32;50282.94;;;-142.97;28.39
8451;BME280;4262;50.980;13.892;2023-04-06T03:47:01;50284.91;;;-142.97;28.39
8451;BME280;4262;50.980;13.892;2023-04-06T03:49:29;50240.06;;;-142.97;27.98
8451;BME280;4262;50.980;13.892;2023-04-06T03:51:58;50259.56;;;-142.97;28.06
8451;BME280;4262;50.980;13.892;2023-04-06T03:54:25;50265.41;;;-142.97;28.05
8451;BME280;4262;50.980;13.892;2023-04-06T03:56:52;50275.16;;;-142.97;27.89
8451;BME280;4262;50.980;13.892;2023-04-06T03:59:18;50255.66;;;-142.97;27.79
8451;BME280;4262;50.980;13.892;2023-04-06T04:01:47;50273.19;;;-142.97;28.01
8451;BME280;4262;50.980;13.892;2023-04-06T04:04:15;50259.56;;;-142.97;27.91
8451;BME280;4262;50.980;13.892;2023-04-06T04:06:42;50253.69;;;-142.97;27.40
8451;BME280;4262;50.980;13.892;2023-04-06T04:09:09;50242.00;;;-142.97;27.66
8451;BME280;4262;50.980;13.892;2023-04-06T04:11:35;50271.25;;;-142.97;27.64
8451;BME280;4262;50.980;13.892;2023-04-06T04:14:02;50281.00;;;-142.97;27.53
8451;BME280;4262;50.980;13.892;2023-04-06T04:16:29;50261.50;;;-142.97;27.43
8451;BME280;4262;50.980;13.892;2023-04-06T04:18:56;50279.03;;;-142.97;27.78
8451;BME280;4262;50.980;13.892;2023-04-06T04:21:29;50245.91;;;-142.97;27.57
8451;BME280;4262;50.980;13.892;2023-04-06T04:23:55;50275.16;;;-142.97;27.55
8451;BME280;4262;50.980;13.892;2023-04-06T04:26:22;50253.69;;;-142.97;27.52
8451;BME280;4262;50.980;13.892;2023-04-06T04:28:49;50245.91;;;-142.97;27.82
8451;BME280;4262;50.980;13.892;2023-04-06T04:31:17;50265.41;;;-142.97;27.71
8451;BME280;4262;50.980;13.892;2023-04-06T04:33:48;50275.16;;;-142.97;28.21
8451;BME280;4262;50.980;13.892;2023-04-06T04:36:23;50277.09;;;-142.97;28.25
8451;BME280;4262;50.980;13.892;2023-04-06T04:38:54;50273.19;;;-142.97;28.56
8451;BME280;4262;50.980;13.892;2023-04-06T04:41:23;50253.69;;;-142.97;29.01
8451;BME280;4262;50.980;13.892;2023-04-06T04:43:50;50251.75;;;-142.97;28.88
8451;BME280;4262;50.980;13.892;2023-04-06T04:46:21;50282.94;;;-142.97;28.42
8451;BME280;4262;50.980;13.892;2023-04-06T04:48:48;50275.16;;;-142.97;28.56
8451;BME280;4262;50.980;13.892;2023-04-06T04:51:15;50267.34;;;-142.97;28.55
8451;BME280;4262;50.980;13.892;2023-04-06T04:53:57;50257.59;;;-142.97;28.78
8451;BME280;4262;50.980;13.892;2023-04-06T04:56:28;50273.19;;;-142.97;28.51
8451;BME280;4262;50.980;13.892;2023-04-06T04:59:03;50245.91;;;-142.97;28.07
8451;BME280;4262;50.980;13.892;2023-04-06T05:01:35;50284.91;;;-142.97;27.80
8451;BME280;4262;50.980;13.892;2023-04-06T05:04:03;50288.78;;;-142.97;27.76
8451;BME280;4262;50.980;13.892;2023-04-06T05:06:30;50228.34;;;-142.97;27.90
8451;BME280;4262;50.980;13.892;2023-04-06T05:08:58;50259.56;;;-142.97;27.62
8451;BME280;4262;50.980;13.892;2023-04-06T05:11:27;50263.44;;;-142.97;27.55
8451;BME280;4262;50.980;13.892;2023-04-06T05:13:59;50304.38;;;-142.97;27.76
8451;BME280;4262;50.980;13.892;2023-04-06T05:16:27;50279.03;;;-142.97;27.77
8451;BME280;4262;50.980;13.892;2023-04-06T05:18:54;50273.19;;;-142.97;27.84
8451;BME280;4262;50.980;13.892;2023-04-06T05:21:26;50282.94;;;-142.97;28.12
8451;BME280;4262;50.980;13.892;2023-04-06T05:24:04;50271.25;;;-142.97;27.52
8451;BME280;4262;50.980;13.892;2023-04-06T05:26:32;50216.66;;;-142.97;27.41
8451;BME280;4262;50.980;13.892;2023-04-06T05:29:05;50245.91;;;-142.97;27.04
8451;BME280;4262;50.980;13.892;2023-04-06T05:31:36;50261.50;;;-142.97;27.09
8451;BME280;4262;50.980;13.892;2023-04-06T05:34:03;50234.19;;;-142.97;27.24
8451;BME280;4262;50.980;13.892;2023-04-06T05:36:33;50204.97;;;-142.97;26.75
8451;BME280;4262;50.980;13.892;2023-04-06T05:39:07;50247.84;;;-142.97;25.96
8451;BME280;4262;50.980;13.892;2023-04-06T05:41:41;50197.16;;;-142.97;26.15
8451;BME280;4262;50.980;13.892;2023-04-06T05:44:09;50222.50;;;-142.97;26.02
8451;BME280;4262;50.980;13.892;2023-04-06T05:46:41;50195.22;;;-142.97;26.08
8451;BME280;4262;50.980;13.892;2023-04-06T05:49:12;50212.75;;;-142.97;25.69
8451;BME280;4262;50.980;13.892;2023-04-06T05:51:41;50214.72;;;-142.97;24.41
8451;BME280;4262;50.980;13.892;2023-04-06T05:54:09;50208.84;;;-142.97;24.38
8451;BME280;4262;50.980;13.892;2023-04-06T05:56:36;50210.81;;;-142.97;24.08
8451;BME280;4262;50.980;13.892;2023-04-06T05:59:05;50189.38;;;-142.97;23.97
8451;BME280;4262;50.980;13.892;2023-04-06T06:01:33;50210.81;;;-142.97;23.37
8451;BME280;4262;50.980;13.892;2023-04-06T06:04:00;50189.38;;;-142.97;23.64
8451;BME280;4262;50.980;13.892;2023-04-06T06:06:29;50179.63;;;-142.97;23.58
8451;BME280;4262;50.980;13.892;2023-04-06T06:09:16;50167.91;;;-142.97;23.59
8451;BME280;4262;50.980;13.892;2023-04-06T06:11:55;50193.25;;;-142.97;23.73
8451;BME280;4262;50.980;13.892;2023-04-06T06:14:25;50162.06;;;-142.97;24.18
8451;BME280;4262;50.980;13.892;2023-04-06T06:16:55;50212.75;;;-142.97;23.91
8451;BME280;4262;50.980;13.892;2023-04-06T06:19:22;50167.91;;;-142.97;24.26
8451;BME280;4262;50.980;13.892;2023-04-06T06:21:53;50171.81;;;-142.97;24.33
8451;BME280;4262;50.980;13.892;2023-04-06T06:24:22;50162.06;;;-142.97;24.04
8451;BME280;4262;50.980;13.892;2023-04-06T06:26:50;50142.56;;;-142.97;23.62
8451;BME280;4262;50.980;13.892;2023-04-06T06:29:18;50183.50;;;-142.97;22.99
8451;BME280;4262;50.980;13.892;2023-04-06T06:31:47;50169.88;;;-142.97;23.15
8451;BME280;4262;50.980;13.892;2023-04-06T06:34:15;50177.66;;;-142.97;23.74
8451;BME280;4262;50.980;13.892;2023-04-06T06:36:42;50171.81;;;-142.97;23.47
8451;BME280;4262;50.980;13.892;2023-04-06T06:39:11;50173.75;;;-142.97;22.97
8451;BME280;4262;50.980;13.892;2023-04-06T06:41:40;50158.16;;;-142.97;23.97
8451;BME280;4262;50.980;13.892;2023-04-06T06:44:08;50156.22;;;-142.97;23.73
8451;BME280;4262;50.980;13.892;2023-04-06T06:46:36;50146.47;;;-142.97;23.43
8451;BME280;4262;50.980;13.892;2023-04-06T06:49:03;50130.88;;;-142.97;24.00
8451;BME280;4262;50.980;13.892;2023-04-06T06:51:29;50132.81;;;-142.97;23.44
8451;BME280;4262;50.980;13.892;2023-04-06T06:53:57;50101.63;;;-142.97;23.27
8451;BME280;4262;50.980;13.892;2023-04-06T06:56:24;50119.19;;;-142.97;23.38
8451;BME280;4262;50.980;13.892;2023-04-06T06:58:54;50130.88;;;-142.97;23.32
8451;BME280;4262;50.980;13.892;2023-04-06T07:01:22;50148.41;;;-142.97;23.51
8451;BME280;4262;50.980;13.892;2023-04-06T07:03:49;50130.88;;;-142.97;22.64
8451;BME280;4262;50.980;13.892;2023-04-06T07:06:16;50130.88;;;-142.97;22.88
8451;BME280;4262;50.980;13.892;2023-04-06T07:08:43;50146.47;;;-142.97;22.90
8451;BME280;4262;50.980;13.892;2023-04-06T07:11:09;50164.03;;;-142.97;22.85
8451;BME280;4262;50.980;13.892;2023-04-06T07:13:37;50154.28;;;-142.97;22.58
8451;BME280;4262;50.980;13.892;2023-04-06T07:16:07;50097.72;;;-142.97;22.57
8451;BME280;4262;50.980;13.892;2023-04-06T07:18:34;50097.72;;;-142.97;22.94
8451;BME280;4262;50.980;13.892;2023-04-06T07:21:01;50103.59;;;-142.97;22.46
8451;BME280;4262;50.980;13.892;2023-04-06T07:23:29;50128.94;;;-142.97;22.16
8451;BME280;4262;50.980;13.892;2023-04-06T07:25:56;50125.03;;;-142.97;21.77
8451;BME280;4262;50.980;13.892;2023-04-06T07:28:23;50117.22;;;-142.97;21.65
8451;BME280;4262;50.980;13.892;2023-04-06T07:30:50;50117.22;;;-142.97;21.32
8451;BME280;4262;50.980;13.892;2023-04-06T07:33:18;50126.97;;;-142.97;21.94
8451;BME280;4262;50.980;13.892;2023-04-06T07:35:45;50144.53;;;-142.97;21.93
8451;BME280;4262;50.980;13.892;2023-04-06T07:38:12;50130.88;;;-142.97;22.20
8451;BME280;4262;50.980;13.892;2023-04-06T07:40:40;50099.69;;;-142.97;22.24
8451;BME280;4262;50.980;13.892;2023-04-06T07:43:08;50121.13;;;-142.97;22.01
8451;BME280;4262;50.980;13.892;2023-04-06T07:45:35;50126.97;;;-142.97;21.80
8451;BME280;4262;50.980;13.892;2023-04-06T07:48:02;50105.53;;;-142.97;20.96
8451;BME280;4262;50.980;13.892;2023-04-06T07:50:32;50132.81;;;-142.97;20.67
8451;BME280;4262;50.980;13.892;2023-04-06T07:53:01;50123.06;;;-142.97;20.64
8451;BME280;4262;50.980;13.892;2023-04-06T07:55:29;50107.47;;;-142.97;20.80
8451;BME280;4262;50.980;13.892;2023-04-06T07:57:55;50099.69;;;-142.97;20.70
8451;BME280;4262;50.980;13.892;2023-04-06T08:00:23;50101.63;;;-142.97;20.89
8451;BME280;4262;50.980;13.892;2023-04-06T08:02:49;50084.09;;;-142.97;19.98
8451;BME280;4262;50.980;13.892;2023-04-06T08:05:16;50105.53;;;-142.97;20.93
8451;BME280;4262;50.980;13.892;2023-04-06T08:07:45;50070.44;;;-142.97;20.88
8451;BME280;4262;50.980;13.892;2023-04-06T08:10:12;50103.59;;;-142.97;20.79
8451;BME280;4262;50.980;13.892;2023-04-06T08:12:40;50095.78;;;-142.97;20.15
8451;BME280;4262;50.980;13.892;2023-04-06T08:15:08;50091.88;;;-142.97;20.52
8451;BME280;4262;50.980;13.892;2023-04-06T08:17:36;50088.00;;;-142.97;20.41
8451;BME280;4262;50.980;13.892;2023-04-06T08:20:02;50072.38;;;-142.97;19.77
8451;BME280;4262;50.980;13.892;2023-04-06T08:22:30;50091.88;;;-142.97;20.19
8451;BME280;4262;50.980;13.892;2023-04-06T08:24:58;50084.09;;;-142.97;20.18
8451;BME280;4262;50.980;13.892;2023-04-06T08:27:25;50068.50;;;-142.97;19.40
8451;BME280;4262;50.980;13.892;2023-04-06T08:29:52;50091.88;;;-142.97;19.27
8451;BME280;4262;50.980;13.892;2023-04-06T08:32:20;50076.28;;;-142.97;19.57
8451;BME280;4262;50.980;13.892;2023-04-06T08:34:47;50086.03;;;-142.97;19.43
8451;BME280;4262;50.980;13.892;2023-04-06T08:37:14;50058.75;;;-142.97;19.47
8451;BME280;4262;50.980;13.892;2023-04-06T08:39:40;50099.69;;;-142.97;19.49
8451;BME280;4262;50.980;13.892;2023-04-06T08:42:12;50078.25;;;-142.97;19.46
8451;BME280;4262;50.980;13.892;2023-04-06T08:44:44;50072.38;;;-142.97;19.58
8451;BME280;4262;50.980;13.892;2023-04-06T08:47:13;50072.38;;;-142.97;19.36
8451;BME280;4262;50.980;13.892;2023-04-06T08:49:40;50068.50;;;-142.97;19.90
8451;BME280;4262;50.980;13.892;2023-04-06T08:52:10;50086.03;;;-142.97;18.67
8451;BME280;4262;50.980;13.892;2023-04-06T08:54:37;50086.03;;;-142.97;18.34
8451;BME280;4262;50.980;13.892;2023-04-06T08:57:04;50068.50;;;-142.97;18.92
8451;BME280;4262;50.980;13.892;2023-04-06T08:59:33;50084.09;;;-142.97;18.92
8451;BME280;4262;50.980;13.892;2023-04-06T09:02:04;50054.84;;;-142.97;18.70
8451;BME280;4262;50.980;13.892;2023-04-06T09:04:32;50088.00;;;-142.97;18.39
8451;BME280;4262;50.980;13.892;2023-04-06T09:07:00;50023.66;;;-142.97;18.51
8451;BME280;4262;50.980;13.892;2023-04-06T09:09:27;50076.28;;;-142.97;18.47
8451;BME280;4262;50.980;13.892;2023-04-06T09:11:53;50060.69;;;-142.97;17.93
8451;BME280;4262;50.980;13.892;2023-04-06T09:14:34;50049.00;;;-142.97;18.13
8451;BME280;4262;50.980;13.892;2023-04-06T09:17:04;50049.00;;;-142.97;17.93
8451;BME280;4262;50.980;13.892;2023-04-06T09:19:31;50070.44;;;-142.97;18.31
8451;BME280;4262;50.980;13.892;2023-04-06T09:22:02;50045.09;;;-142.97;18.49
8451;BME280;4262;50.980;13.892;2023-04-06T09:24:41;50076.28;;;-142.97;18.31
8451;BME280;4262;50.980;13.892;2023-04-06T09:27:09;50054.84;;;-142.97;18.30
8451;BME280;4262;50.980;13.892;2023-04-06T09:29:36;50066.53;;;-142.97;18.23
8451;BME280;4262;50.980;13.892;2023-04-06T09:32:06;50031.44;;;-142.97;18.13
8451;BME280;4262;50.980;13.892;2023-04-06T09:34:33;50056.78;;;-142.97;17.76
8451;BME280;4262;50.980;13.892;2023-04-06T09:37:00;50025.59;;;-142.97;18.02
8451;BME280;4262;50.980;13.892;2023-04-06T09:39:38;50045.09;;;-142.97;17.70
8451;BME280;4262;50.980;13.892;2023-04-06T09:42:05;50033.41;;;-142.97;17.85
8451;BME280;4262;50.980;13.892;2023-04-06T09:44:33;50076.28;;;-142.97;17.98
8451;BME280;4262;50.980;13.892;2023-04-06T09:47:04;50027.56;;;-142.97;18.25
8451;BME280;4262;50.980;13.892;2023-04-06T09:49:33;50066.53;;;-142.97;17.64
8451;BME280;4262;50.980;13.892;2023-04-06T09:52:01;50008.06;;;-142.97;17.29
8451;BME280;4262;50.980;13.892;2023-04-06T09:54:30;50033.41;;;-142.97;17.35
8451;BME280;4262;50.980;13.892;2023-04-06T09:57:02;50050.94;;;-142.97;17.04
8451;BME280;4262;50.980;13.892;2023-04-06T09:59:38;50027.56;;;-142.97;17.22
8451;BME280;4262;50.980;13.892;2023-04-06T10:02:15;50045.09;;;-142.97;17.27
8451;BME280;4262;50.980;13.892;2023-04-06T10:04:52;50054.84;;;-142.97;18.10
8451;BME280;4262;50.980;13.892;2023-04-06T10:07:22;50015.84;;;-142.97;17.90
8451;BME280;4262;50.980;13.892;2023-04-06T10:09:49;50047.03;;;-142.97;17.67
8451;BME280;4262;50.980;13.892;2023-04-06T10:12:17;50017.81;;;-142.97;17.62
8451;BME280;4262;50.980;13.892;2023-04-06T10:14:45;50033.41;;;-142.97;17.62
8451;BME280;4262;50.980;13.892;2023-04-06T10:17:16;50017.81;;;-142.97;17.08
8451;BME280;4262;50.980;13.892;2023-04-06T10:19:49;50033.41;;;-142.97;16.85
8451;BME280;4262;50.980;13.892;2023-04-06T10:22:23;50002.22;;;-142.97;16.80
8451;BME280;4262;50.980;13.892;2023-04-06T10:24:52;50013.91;;;-142.97;16.31
8451;BME280;4262;50.980;13.892;2023-04-06T10:27:27;50043.16;;;-142.97;16.90
8451;BME280;4262;50.980;13.892;2023-04-06T10:30:01;50043.16;;;-142.97;16.55
8451;BME280;4262;50.980;13.892;2023-04-06T10:32:34;50027.56;;;-142.97;17.73
8451;BME280;4262;50.980;13.892;2023-04-06T10:35:07;50006.09;;;-142.97;17.23
8451;BME280;4262;50.980;13.892;2023-04-06T10:37:49;50021.69;;;-142.97;17.58
8451;BME280;4262;50.980;13.892;2023-04-06T10:40:24;50000.25;;;-142.97;17.61
8451;BME280;4262;50.980;13.892;2023-04-06T10:42:53;50002.22;;;-142.97;16.94
8451;BME280;4262;50.980;13.892;2023-04-06T10:45:22;50000.25;;;-142.97;16.90
8451;BME280;4262;50.980;13.892;2023-04-06T10:47:52;50011.97;;;-142.97;17.71
8451;BME280;4262;50.980;13.892;2023-04-06T10:50:19;49984.66;;;-142.97;16.92
8451;BME280;4262;50.980;13.892;2023-04-06T10:52:47;49988.56;;;-142.97;17.29
8451;BME280;4262;50.980;13.892;2023-04-06T10:55:26;50002.22;;;-142.97;17.02
8451;BME280;4262;50.980;13.892;2023-04-06T10:57:53;50195.22;;;-142.97;17.58
8451;BME280;4262;50.980;13.892;2023-04-06T11:00:20;50169.88;;;-142.97;17.14
8451;BME280;4262;50.980;13.892;2023-04-06T11:02:47;50164.03;;;-142.97;17.10
8451;BME280;4262;50.980;13.892;2023-04-06T11:05:16;50101.63;;;-142.97;17.23
8451;BME280;4262;50.980;13.892;2023-04-06T11:07:44;50021.69;;;-142.97;18.08
8451;BME280;4262;50.980;13.892;2023-04-06T11:10:10;50173.75;;;-142.97;17.67
8451;BME280;4262;50.980;13.892;2023-04-06T11:12:37;50047.03;;;-142.97;17.99
8451;BME280;4262;50.980;13.892;2023-04-06T11:15:04;49984.66;;;-142.97;17.55
8451;BME280;4262;50.980;13.892;2023-04-06T11:17:33;50049.00;;;-142.97;16.87
8451;BME280;4262;50.980;13.892;2023-04-06T11:20:02;49984.66;;;-142.97;17.24
8451;BME280;4262;50.980;13.892;2023-04-06T11:22:31;49982.72;;;-142.97;16.81
8451;BME280;4262;50.980;13.892;2023-04-06T11:25:06;50004.16;;;-142.97;17.05
8451;BME280;4262;50.980;13.892;2023-04-06T11:27:33;50002.22;;;-142.97;16.94
8451;BME280;4262;50.980;13.892;2023-04-06T11:30:01;49996.34;;;-142.97;17.10
8451;BME280;4262;50.980;13.892;2023-04-06T11:32:29;50013.91;;;-142.97;17.02
8451;BME280;4262;50.980;13.892;2023-04-06T11:34:57;50010.00;;;-142.97;17.07
8451;BME280;4262;50.980;13.892;2023-04-06T11:37:26;49980.75;;;-142.97;17.16
8451;BME280;4262;50.980;13.892;2023-04-06T11:39:55;49984.66;;;-142.97;16.45
8451;BME280;4262;50.980;13.892;2023-04-06T11:42:23;50050.94;;;-142.97;17.04
8451;BME280;4262;50.980;13.892;2023-04-06T11:44:53;49984.66;;;-142.97;16.58
8451;BME280;4262;50.980;13.892;2023-04-06T11:47:27;50029.50;;;-142.97;16.92
8451;BME280;4262;50.980;13.892;2023-04-06T11:49:54;50193.25;;;-142.97;16.95
8451;BME280;4262;50.980;13.892;2023-04-06T11:52:23;50193.25;;;-142.97;17.59
8451;BME280;4262;50.980;13.892;2023-04-06T11:54:52;50144.53;;;-142.97;17.28
8451;BME280;4262;50.980;13.892;2023-04-06T11:57:21;50218.59;;;-142.97;17.75
8451;BME280;4262;50.980;13.892;2023-04-06T11:59:48;50181.56;;;-142.97;18.79
8451;BME280;4262;50.980;13.892;2023-04-06T12:02:15;50218.59;;;-142.97;18.75
8451;BME280;4262;50.980;13.892;2023-04-06T12:04:44;50247.84;;;-142.97;18.82
8451;BME280;4262;50.980;13.892;2023-04-06T12:07:11;50234.19;;;-142.97;18.96
8451;BME280;4262;50.980;13.892;2023-04-06T12:09:37;50216.66;;;-142.97;19.37
8451;BME280;4262;50.980;13.892;2023-04-06T12:12:04;50193.25;;;-142.97;19.00
8451;BME280;4262;50.980;13.892;2023-04-06T12:14:34;49992.47;;;-142.97;18.50
8451;BME280;4262;50.980;13.892;2023-04-06T12:17:00;50214.72;;;-142.97;18.62
8451;BME280;4262;50.980;13.892;2023-04-06T12:19:28;50033.41;;;-142.97;18.01
8451;BME280;4262;50.980;13.892;2023-04-06T12:21:54;50218.59;;;-142.97;17.96
8451;BME280;4262;50.980;13.892;2023-04-06T12:24:23;50035.34;;;-142.97;18.23
8451;BME280;4262;50.980;13.892;2023-04-06T12:26:50;50154.28;;;-142.97;18.33
8451;BME280;4262;50.980;13.892;2023-04-06T12:29:17;50043.16;;;-142.97;18.23
8451;BME280;4262;50.980;13.892;2023-04-06T12:31:45;50027.56;;;-142.97;18.03
8451;BME280;4262;50.980;13.892;2023-04-06T12:34:13;50029.50;;;-142.97;17.90
8451;BME280;4262;50.980;13.892;2023-04-06T12:36:40;50045.09;;;-142.97;18.23
8451;BME280;4262;50.980;13.892;2023-04-06T12:39:07;50056.78;;;-142.97;17.76
8451;BME280;4262;50.980;13.892;2023-04-06T12:41:34;50043.16;;;-142.97;17.44
8451;BME280;4262;50.980;13.892;2023-04-06T12:44:02;50078.25;;;-142.97;17.44
8451;BME280;4262;50.980;13.892;2023-04-06T12:46:29;50043.16;;;-142.97;17.52
8451;BME280;4262;50.980;13.892;2023-04-06T12:48:58;50050.94;;;-142.97;17.59
8451;BME280;4262;50.980;13.892;2023-04-06T12:51:27;50045.09;;;-142.97;17.61
8451;BME280;4262;50.980;13.892;2023-04-06T12:53:56;50037.31;;;-142.97;17.68
8451;BME280;4262;50.980;13.892;2023-04-06T12:56:22;50047.03;;;-142.97;17.35
8451;BME280;4262;50.980;13.892;2023-04-06T12:58:50;50025.59;;;-142.97;17.46
8451;BME280;4262;50.980;13.892;2023-04-06T13:01:18;50060.69;;;-142.97;17.59
8451;BME280;4262;50.980;13.892;2023-04-06T13:03:48;50062.66;;;-142.97;17.47
8451;BME280;4262;50.980;13.892;2023-04-06T13:06:17;50068.50;;;-142.97;17.21
8451;BME280;4262;50.980;13.892;2023-04-06T13:08:44;50054.84;;;-142.97;17.33
8451;BME280;4262;50.980;13.892;2023-04-06T13:11:12;50088.00;;;-142.97;17.42
8451;BME280;4262;50.980;13.892;2023-04-06T13:13:41;50043.16;;;-142.97;17.04
8451;BME280;4262;50.980;13.892;2023-04-06T13:16:08;50066.53;;;-142.97;17.39
8451;BME280;4262;50.980;13.892;2023-04-06T13:18:36;50050.94;;;-142.97;17.47
8451;BME280;4262;50.980;13.892;2023-04-06T13:21:04;50058.75;;;-142.97;17.98
8451;BME280;4262;50.980;13.892;2023-04-06T13:23:32;50056.78;;;-142.97;17.26
8451;BME280;4262;50.980;13.892;2023-04-06T13:26:01;50066.53;;;-142.97;17.96
8451;BME280;4262;50.980;13.892;2023-04-06T13:28:29;50074.34;;;-142.97;17.28
8451;BME280;4262;50.980;13.892;2023-04-06T13:30:58;50072.38;;;-142.97;18.82
8451;BME280;4262;50.980;13.892;2023-04-06T13:33:25;50082.13;;;-142.97;18.75
8451;BME280;4262;50.980;13.892;2023-04-06T13:35:52;50103.59;;;-142.97;19.43
8451;BME280;4262;50.980;13.892;2023-04-06T13:38:18;50115.28;;;-142.97;18.17
8451;BME280;4262;50.980;13.892;2023-04-06T13:40:47;50068.50;;;-142.97;18.85
8451;BME280;4262;50.980;13.892;2023-04-06T13:43:13;50093.84;;;-142.97;18.80
8451;BME280;4262;50.980;13.892;2023-04-06T13:45:48;50212.75;;;-142.97;18.85
8451;BME280;4262;50.980;13.892;2023-04-06T13:48:15;50220.56;;;-142.97;19.39
8451;BME280;4262;50.980;13.892;2023-04-06T13:50:42;50062.66;;;-142.97;19.33
8451;BME280;4262;50.980;13.892;2023-04-06T13:53:09;50093.84;;;-142.97;19.31
8451;BME280;4262;50.980;13.892;2023-04-06T13:55:35;50111.38;;;-142.97;19.08
8451;BME280;4262;50.980;13.892;2023-04-06T13:58:03;50105.53;;;-142.97;19.07
8451;BME280;4262;50.980;13.892;2023-04-06T14:00:30;50089.94;;;-142.97;19.06
8451;BME280;4262;50.980;13.892;2023-04-06T14:02:57;50099.69;;;-142.97;18.77
8451;BME280;4262;50.980;13.892;2023-04-06T14:05:25;50099.69;;;-142.97;17.96
8451;BME280;4262;50.980;13.892;2023-04-06T14:07:53;50101.63;;;-142.97;18.66
8451;BME280;4262;50.980;13.892;2023-04-06T14:10:20;50119.19;;;-142.97;18.50
8451;BME280;4262;50.980;13.892;2023-04-06T14:12:49;50119.19;;;-142.97;18.32
8451;BME280;4262;50.980;13.892;2023-04-06T14:15:17;50117.22;;;-142.97;18.28
8451;BME280;4262;50.980;13.892;2023-04-06T14:17:45;50138.69;;;-142.97;18.39
8451;BME280;4262;50.980;13.892;2023-04-06T14:20:12;50117.22;;;-142.97;18.87
8451;BME280;4262;50.980;13.892;2023-04-06T14:22:40;50117.22;;;-142.97;18.45
8451;BME280;4262;50.980;13.892;2023-04-06T14:25:09;50128.94;;;-142.97;18.13
8451;BME280;4262;50.980;13.892;2023-04-06T14:27:36;50167.91;;;-142.97;18.84
8451;BME280;4262;50.980;13.892;2023-04-06T14:30:04;50173.75;;;-142.97;18.53
8451;BME280;4262;50.980;13.892;2023-04-06T14:32:33;50177.66;;;-142.97;18.08
8451;BME280;4262;50.980;13.892;2023-04-06T14:35:02;50203.00;;;-142.97;18.20
8451;BME280;4262;50.980;13.892;2023-04-06T14:37:29;50203.00;;;-142.97;18.51
8451;BME280;4262;50.980;13.892;2023-04-06T14:39:56;50197.16;;;-142.97;18.23
8451;BME280;4262;50.980;13.892;2023-04-06T14:42:23;50240.06;;;-142.97;19.33
8451;BME280;4262;50.980;13.892;2023-04-06T14:44:49;50240.06;;;-142.97;19.34
8451;BME280;4262;50.980;13.892;2023-04-06T14:47:18;50220.56;;;-142.97;19.07
8451;BME280;4262;50.980;13.892;2023-04-06T14:49:49;50222.50;;;-142.97;19.13
8451;BME280;4262;50.980;13.892;2023-04-06T14:52:16;50228.34;;;-142.97;19.14
8451;BME280;4262;50.980;13.892;2023-04-06T14:54:44;50230.31;;;-142.97;19.10
8451;BME280;4262;50.980;13.892;2023-04-06T14:57:11;50224.47;;;-142.97;19.27
8451;BME280;4262;50.980;13.892;2023-04-06T14:59:38;50259.56;;;-142.97;19.16
8451;BME280;4262;50.980;13.892;2023-04-06T15:02:05;50236.16;;;-142.97;19.08
8451;BME280;4262;50.980;13.892;2023-04-06T15:04:33;50224.47;;;-142.97;19.42
8451;BME280;4262;50.980;13.892;2023-04-06T15:07:01;50267.34;;;-142.97;18.98
8451;BME280;4262;50.980;13.892;2023-04-06T15:09:28;50240.06;;;-142.97;19.00
8451;BME280;4262;50.980;13.892;2023-04-06T15:11:55;50232.25;;;-142.97;19.65
8451;BME280;4262;50.980;13.892;2023-04-06T15:14:24;50243.94;;;-142.97;19.42
8451;BME280;4262;50.980;13.892;2023-04-06T15:16:50;50243.94;;;-142.97;19.76
8451;BME280;4262;50.980;13.892;2023-04-06T15:19:17;50195.22;;;-142.97;19.67
8451;BME280;4262;50.980;13.892;2023-04-06T15:21:43;50234.19;;;-142.97;19.83
8451;BME280;4262;50.980;13.892;2023-04-06T15:24:13;50224.47;;;-142.97;19.83
8451;BME280;4262;50.980;13.892;2023-04-06T15:26:40;50251.75;;;-142.97;19.77
8451;BME280;4262;50.980;13.892;2023-04-06T15:29:06;50240.06;;;-142.97;19.62
8451;BME280;4262;50.980;13.892;2023-04-06T15:31:33;50220.56;;;-142.97;19.95
8451;BME280;4262;50.980;13.892;2023-04-06T15:34:00;50232.25;;;-142.97;20.26
8451;BME280;4262;50.980;13.892;2023-04-06T15:36:28;50263.44;;;-142.97;20.37
8451;BME280;4262;50.980;13.892;2023-04-06T15:38:55;50228.34;;;-142.97;20.02
8451;BME280;4262;50.980;13.892;2023-04-06T15:41:23;50255.66;;;-142.97;19.98
8451;BME280;4262;50.980;13.892;2023-04-06T15:43:51;50236.16;;;-142.97;20.06
8451;BME280;4262;50.980;13.892;2023-04-06T15:46:18;50243.94;;;-142.97;20.18
8451;BME280;4262;50.980;13.892;2023-04-06T15:48:45;50240.06;;;-142.97;19.79
8451;BME280;4262;50.980;13.892;2023-04-06T15:51:12;50296.59;;;-142.97;19.94
8451;BME280;4262;50.980;13.892;2023-04-06T15:53:38;50243.94;;;-142.97;19.92
8451;BME280;4262;50.980;13.892;2023-04-06T15:56:06;50208.84;;;-142.97;19.77
8451;BME280;4262;50.980;13.892;2023-04-06T15:58:35;50240.06;;;-142.97;19.90
8451;BME280;4262;50.980;13.892;2023-04-06T16:01:10;50275.16;;;-142.97;19.92
8451;BME280;4262;50.980;13.892;2023-04-06T16:03:38;50238.09;;;-142.97;20.29
8451;BME280;4262;50.980;13.892;2023-04-06T16:06:05;50236.16;;;-142.97;19.86
8451;BME280;4262;50.980;13.892;2023-04-06T16:08:32;50240.06;;;-142.97;20.16
8451;BME280;4262;50.980;13.892;2023-04-06T16:10:58;50255.66;;;-142.97;20.16
8451;BME280;4262;50.980;13.892;2023-04-06T16:13:25;50242.00;;;-142.97;19.92
8451;BME280;4262;50.980;13.892;2023-04-06T16:15:55;50253.69;;;-142.97;20.02
8451;BME280;4262;50.980;13.892;2023-04-06T16:18:21;50220.56;;;-142.97;19.89
8451;BME280;4262;50.980;13.892;2023-04-06T16:20:48;50243.94;;;-142.97;19.85
8451;BME280;4262;50.980;13.892;2023-04-06T16:23:15;50242.00;;;-142.97;20.25
8451;BME280;4262;50.980;13.892;2023-04-06T16:25:42;50275.16;;;-142.97;20.29
8451;BME280;4262;50.980;13.892;2023-04-06T16:28:09;50255.66;;;-142.97;20.07